createdAt,value
2016-12-31T00:00:35.173Z,0
2016-12-31T00:01:45.916Z,0
2016-12-31T00:02:55.858Z,0
2016-12-31T00:04:06.205Z,0
2016-12-31T00:05:16.545Z,0
2016-12-31T00:06:27.298Z,0
2016-12-31T00:07:37.662Z,0
2016-12-31T00:08:48.400Z,0
2016-12-31T00:09:59.137Z,0
2016-12-31T00:11:09.891Z,0
2016-12-31T00:12:19.835Z,0
2016-12-31T00:13:30.192Z,0
2016-12-31T00:14:40.206Z,0
2016-12-31T00:15:50.551Z,0
2016-12-31T00:17:01.528Z,0
2016-12-31T00:18:11.878Z,0
2016-12-31T00:19:22.232Z,0
2016-12-31T00:20:32.573Z,0
2016-12-31T00:21:43.326Z,0
2016-12-31T00:22:53.302Z,0
2016-12-31T00:24:04.068Z,0
2016-12-31T00:25:14.019Z,0
2016-12-31T00:26:24.361Z,0
2016-12-31T00:27:34.705Z,0
2016-12-31T00:28:44.664Z,0
2016-12-31T00:29:55.009Z,0
2016-12-31T00:31:05.354Z,0
2016-12-31T00:32:16.080Z,0
2016-12-31T00:33:26.417Z,0
2016-12-31T00:34:36.363Z,0
2016-12-31T00:35:47.124Z,0
2016-12-31T00:36:57.492Z,0
2016-12-31T00:38:07.858Z,0
2016-12-31T00:39:18.594Z,0
2016-12-31T00:40:28.951Z,0
2016-12-31T00:41:39.699Z,0
2016-12-31T00:42:50.035Z,0
2016-12-31T00:44:00.392Z,0
2016-12-31T00:45:11.133Z,0
2016-12-31T00:46:21.876Z,0
2016-12-31T00:47:32.213Z,0
2016-12-31T00:48:42.566Z,0
2016-12-31T00:49:52.917Z,0
2016-12-31T00:51:03.663Z,0
2016-12-31T00:52:14.384Z,0
2016-12-31T00:53:24.740Z,0
2016-12-31T00:54:35.487Z,0
2016-12-31T00:55:44.659Z,0
2016-12-31T00:56:54.626Z,0
2016-12-31T00:58:04.964Z,0
2016-12-31T00:59:15.710Z,0
2016-12-31T01:00:26.471Z,0
2016-12-31T01:01:36.849Z,0
2016-12-31T01:02:47.239Z,0
2016-12-31T01:03:57.979Z,0
2016-12-31T01:05:08.720Z,0
2016-12-31T01:06:19.065Z,0
2016-12-31T01:07:29.826Z,0
2016-12-31T01:08:40.158Z,0
2016-12-31T01:09:50.150Z,0
2016-12-31T01:11:00.510Z,0
2016-12-31T01:12:10.868Z,0
2016-12-31T01:13:21.607Z,0
2016-12-31T01:14:31.947Z,0
2016-12-31T01:15:42.293Z,0
2016-12-31T01:16:52.277Z,0
2016-12-31T01:18:03.014Z,0
2016-12-31T01:19:13.368Z,0
2016-12-31T01:20:24.133Z,0
2016-12-31T01:21:34.904Z,0
2016-12-31T01:22:45.261Z,0
2016-12-31T01:23:55.196Z,0
2016-12-31T01:25:05.530Z,0
2016-12-31T01:26:15.880Z,0
2016-12-31T01:27:26.641Z,0
2016-12-31T01:28:37.052Z,0
2016-12-31T01:29:47.797Z,0
2016-12-31T01:30:58.166Z,0
2016-12-31T01:32:08.537Z,0
2016-12-31T01:33:18.884Z,0
2016-12-31T01:34:29.612Z,0
2016-12-31T01:35:39.967Z,0
2016-12-31T01:36:50.705Z,0
2016-12-31T01:38:01.446Z,0
2016-12-31T01:39:12.182Z,0
2016-12-31T01:40:22.964Z,0
2016-12-31T01:41:33.311Z,0
2016-12-31T01:42:43.660Z,0
2016-12-31T01:43:54.381Z,0
2016-12-31T01:45:05.116Z,0
2016-12-31T01:46:15.476Z,0
2016-12-31T01:47:25.830Z,0
2016-12-31T01:48:36.573Z,0
2016-12-31T01:49:47.309Z,0
2016-12-31T01:50:58.050Z,0
2016-12-31T01:52:08.009Z,0
2016-12-31T01:53:18.349Z,0
2016-12-31T01:54:29.095Z,0
2016-12-31T01:55:39.463Z,0
2016-12-31T01:56:49.804Z,0
2016-12-31T01:57:59.761Z,0
2016-12-31T01:59:10.517Z,0
2016-12-31T02:00:21.246Z,0
2016-12-31T02:01:31.584Z,0
2016-12-31T02:02:41.551Z,0
2016-12-31T02:03:52.279Z,0
2016-12-31T02:05:03.016Z,0
2016-12-31T02:06:13.753Z,0
2016-12-31T02:07:24.495Z,0
2016-12-31T02:08:35.240Z,0
2016-12-31T02:09:45.577Z,0
2016-12-31T02:10:56.316Z,0
2016-12-31T02:12:06.668Z,0
2016-12-31T02:13:17.023Z,0
2016-12-31T02:14:27.771Z,0
2016-12-31T02:15:38.536Z,0
2016-12-31T02:16:48.875Z,0
2016-12-31T02:17:59.230Z,0
2016-12-31T02:19:09.571Z,0
2016-12-31T02:20:20.318Z,0
2016-12-31T02:21:31.049Z,0
2016-12-31T02:22:40.995Z,0
2016-12-31T02:23:51.342Z,0
2016-12-31T02:25:01.714Z,0
2016-12-31T02:26:12.059Z,0
2016-12-31T02:27:22.794Z,0
2016-12-31T02:28:33.571Z,0
2016-12-31T02:29:43.527Z,0
2016-12-31T02:30:53.482Z,0
2016-12-31T02:32:03.830Z,0
2016-12-31T02:33:14.579Z,0
2016-12-31T02:34:24.533Z,0
2016-12-31T02:35:35.272Z,0
2016-12-31T02:36:46.022Z,0
2016-12-31T02:37:56.374Z,0
2016-12-31T02:39:07.105Z,0
2016-12-31T02:40:17.443Z,0
2016-12-31T02:41:28.190Z,0
2016-12-31T02:42:38.525Z,0
2016-12-31T02:43:48.864Z,0
2016-12-31T02:44:59.609Z,0
2016-12-31T02:46:09.956Z,0
2016-12-31T02:47:20.287Z,0
2016-12-31T02:48:30.229Z,0
2016-12-31T02:49:40.176Z,0
2016-12-31T02:50:50.908Z,0
2016-12-31T02:52:01.636Z,0
2016-12-31T02:53:12.368Z,0
2016-12-31T02:54:23.115Z,0
2016-12-31T02:55:33.464Z,0
2016-12-31T02:56:44.211Z,0
2016-12-31T02:57:54.941Z,0
2016-12-31T02:59:05.290Z,0
2016-12-31T03:00:15.631Z,0
2016-12-31T03:01:25.978Z,0
2016-12-31T03:33:09.953Z,0
2016-12-31T03:34:20.295Z,0
2016-12-31T03:35:30.627Z,0
2016-12-31T03:36:40.998Z,0
2016-12-31T03:37:51.321Z,0
2016-12-31T03:39:02.082Z,0
2016-12-31T03:40:12.423Z,0
2016-12-31T03:41:23.156Z,0
2016-12-31T03:42:33.508Z,0
2016-12-31T03:43:42.664Z,0
2016-12-31T03:44:53.410Z,0
2016-12-31T03:46:03.359Z,0
2016-12-31T03:47:14.095Z,0
2016-12-31T03:48:24.497Z,0
2016-12-31T03:49:34.839Z,0
2016-12-31T03:50:45.201Z,0
2016-12-31T03:51:55.937Z,0
2016-12-31T03:53:06.679Z,0
2016-12-31T03:54:17.025Z,0
2016-12-31T03:55:27.381Z,0
2016-12-31T03:56:38.374Z,0
2016-12-31T03:57:48.712Z,0
2016-12-31T03:58:59.679Z,0
2016-12-31T04:00:10.404Z,0
2016-12-31T04:01:20.755Z,0
2016-12-31T04:02:31.497Z,0
2016-12-31T04:03:41.829Z,0
2016-12-31T04:04:51.773Z,0
2016-12-31T04:06:01.735Z,0
2016-12-31T04:07:12.479Z,0
2016-12-31T04:08:23.221Z,0
2016-12-31T04:09:33.972Z,0
2016-12-31T04:10:44.716Z,0
2016-12-31T04:11:55.483Z,0
2016-12-31T04:13:05.828Z,0
2016-12-31T04:14:16.177Z,0
2016-12-31T04:15:26.909Z,0
2016-12-31T04:16:37.663Z,0
2016-12-31T04:17:48.010Z,0
2016-12-31T04:18:58.336Z,0
2016-12-31T04:20:08.679Z,0
2016-12-31T04:21:19.056Z,0
2016-12-31T04:22:28.998Z,0
2016-12-31T04:23:39.779Z,0
2016-12-31T04:24:50.186Z,0
2016-12-31T04:26:00.123Z,0
2016-12-31T04:27:10.469Z,0
2016-12-31T04:28:21.206Z,0
2016-12-31T04:29:31.545Z,0
2016-12-31T04:30:42.320Z,0
2016-12-31T04:31:52.651Z,0
2016-12-31T04:33:03.406Z,0
2016-12-31T04:34:14.139Z,0
2016-12-31T04:35:24.501Z,0
2016-12-31T04:36:35.237Z,0
2016-12-31T04:37:45.979Z,0
2016-12-31T04:38:56.349Z,0
2016-12-31T04:40:07.086Z,0
2016-12-31T04:41:17.832Z,0
2016-12-31T04:42:28.165Z,0
2016-12-31T04:43:38.515Z,0
2016-12-31T04:44:48.459Z,0
2016-12-31T04:45:58.829Z,0
2016-12-31T04:47:09.560Z,0
2016-12-31T04:48:20.307Z,0
2016-12-31T04:49:30.653Z,0
2016-12-31T04:50:41.406Z,0
2016-12-31T04:51:52.134Z,0
2016-12-31T04:53:02.486Z,0
2016-12-31T04:54:13.225Z,0
2016-12-31T04:55:24.008Z,0
2016-12-31T04:56:34.336Z,0
2016-12-31T04:57:45.075Z,0
2016-12-31T04:58:55.823Z,0
2016-12-31T05:00:06.559Z,0
2016-12-31T05:01:16.918Z,0
2016-12-31T05:02:27.648Z,0
2016-12-31T05:03:38.009Z,0
2016-12-31T05:04:48.759Z,0
2016-12-31T05:05:59.510Z,0
2016-12-31T05:07:09.065Z,0
2016-12-31T05:08:19.415Z,0
2016-12-31T05:09:30.166Z,0
2016-12-31T05:10:40.916Z,0
2016-12-31T05:11:51.271Z,0
2016-12-31T05:13:02.003Z,0
2016-12-31T05:14:12.739Z,0
2016-12-31T05:15:23.473Z,0
2016-12-31T05:16:33.830Z,0
2016-12-31T05:17:44.167Z,0
2016-12-31T05:18:54.507Z,0
2016-12-31T05:20:05.242Z,0
2016-12-31T05:21:15.195Z,0
2016-12-31T05:22:25.540Z,0
2016-12-31T05:23:36.291Z,0
2016-12-31T05:24:46.255Z,0
2016-12-31T05:25:57.017Z,0
2016-12-31T05:27:07.348Z,0
2016-12-31T05:28:18.084Z,0
2016-12-31T05:29:28.042Z,0
2016-12-31T05:30:38.774Z,0
2016-12-31T05:31:49.544Z,0
2016-12-31T05:32:59.890Z,0
2016-12-31T05:34:09.848Z,0
2016-12-31T05:35:20.209Z,0
2016-12-31T05:36:30.577Z,0
2016-12-31T05:37:40.539Z,0
2016-12-31T05:38:50.869Z,0
2016-12-31T05:40:01.207Z,0
2016-12-31T05:41:11.952Z,0
2016-12-31T05:42:22.298Z,0
2016-12-31T05:43:32.641Z,0
2016-12-31T05:44:42.977Z,0
2016-12-31T05:45:53.316Z,0
2016-12-31T05:47:04.051Z,0
2016-12-31T05:48:14.392Z,0
2016-12-31T05:49:24.768Z,0
2016-12-31T05:50:35.554Z,0
2016-12-31T05:51:45.886Z,0
2016-12-31T05:52:56.231Z,0
2016-12-31T05:54:06.184Z,0
2016-12-31T05:55:16.538Z,0
2016-12-31T05:56:26.869Z,0
2016-12-31T05:57:37.609Z,0
2016-12-31T05:58:47.945Z,0
2016-12-31T05:59:58.346Z,0
2016-12-31T06:01:09.073Z,0
2016-12-31T06:02:19.015Z,0
2016-12-31T06:03:29.376Z,0
2016-12-31T06:04:40.105Z,0
2016-12-31T06:05:50.054Z,0
2016-12-31T06:07:00.785Z,0
2016-12-31T06:08:11.522Z,0
2016-12-31T06:09:22.265Z,0
2016-12-31T06:10:32.211Z,0
2016-12-31T06:11:42.180Z,0
2016-12-31T06:12:52.904Z,0
2016-12-31T06:14:03.670Z,0
2016-12-31T06:15:14.462Z,0
2016-12-31T06:16:25.219Z,0
2016-12-31T06:17:35.551Z,0
2016-12-31T06:18:45.506Z,0
2016-12-31T06:19:55.878Z,0
2016-12-31T06:21:06.251Z,0
2016-12-31T06:22:16.987Z,0
2016-12-31T06:23:27.328Z,0
2016-12-31T06:24:38.065Z,0
2016-12-31T06:25:48.802Z,0
2016-12-31T06:26:59.549Z,0
2016-12-31T06:28:10.308Z,0
2016-12-31T06:29:20.644Z,0
2016-12-31T06:30:31.374Z,0
2016-12-31T06:31:42.127Z,0
2016-12-31T06:32:52.538Z,0
2016-12-31T06:34:03.278Z,0
2016-12-31T06:35:13.622Z,0
2016-12-31T06:36:24.356Z,0
2016-12-31T06:37:34.695Z,0
2016-12-31T06:38:45.045Z,0
2016-12-31T06:39:55.782Z,0
2016-12-31T06:41:06.115Z,0
2016-12-31T06:42:16.860Z,5
2016-12-31T06:43:26.806Z,5
2016-12-31T06:44:37.145Z,5
2016-12-31T06:45:47.881Z,5
2016-12-31T06:46:58.622Z,5
2016-12-31T06:48:08.590Z,5
2016-12-31T06:49:19.342Z,5
2016-12-31T06:50:29.287Z,10
2016-12-31T06:51:39.240Z,10
2016-12-31T06:52:48.801Z,10
2016-12-31T06:53:59.147Z,10
2016-12-31T06:55:09.095Z,10
2016-12-31T06:56:19.439Z,10
2016-12-31T06:57:29.783Z,15
2016-12-31T06:58:40.135Z,15
2016-12-31T06:59:50.865Z,15
2016-12-31T07:01:01.219Z,15
2016-12-31T07:02:11.974Z,20
2016-12-31T07:03:22.712Z,20
2016-12-31T07:04:32.655Z,20
2016-12-31T07:05:42.596Z,25
2016-12-31T07:06:52.929Z,25
2016-12-31T07:08:03.678Z,25
2016-12-31T07:09:14.411Z,30
2016-12-31T07:10:25.161Z,30
2016-12-31T07:11:35.904Z,30
2016-12-31T07:12:46.659Z,30
2016-12-31T07:13:57.002Z,35
2016-12-31T07:15:07.350Z,35
2016-12-31T07:16:17.692Z,35
2016-12-31T07:17:28.424Z,40
2016-12-31T07:18:38.775Z,40
2016-12-31T07:19:49.129Z,40
2016-12-31T07:20:59.869Z,45
2016-12-31T07:22:10.255Z,45
2016-12-31T07:23:20.993Z,45
2016-12-31T07:24:31.328Z,45
2016-12-31T07:25:40.875Z,50
2016-12-31T07:26:50.818Z,45
2016-12-31T07:28:01.594Z,50
2016-12-31T07:29:12.340Z,50
2016-12-31T07:30:22.698Z,50
2016-12-31T07:31:33.039Z,55
2016-12-31T07:32:43.391Z,55
2016-12-31T07:33:53.731Z,60
2016-12-31T07:35:04.063Z,60
2016-12-31T07:36:14.823Z,60
2016-12-31T07:37:25.560Z,60
2016-12-31T07:38:35.511Z,60
2016-12-31T07:39:46.248Z,60
2016-12-31T07:40:56.217Z,65
2016-12-31T07:42:06.993Z,65
2016-12-31T07:43:17.177Z,65
2016-12-31T07:44:27.508Z,65
2016-12-31T07:45:38.257Z,70
2016-12-31T07:46:49.008Z,70
2016-12-31T07:47:59.361Z,70
2016-12-31T07:49:10.104Z,70
2016-12-31T07:50:20.437Z,75
2016-12-31T07:51:31.192Z,75
2016-12-31T07:52:41.533Z,75
2016-12-31T07:53:51.894Z,75
2016-12-31T07:55:02.628Z,80
2016-12-31T07:56:12.964Z,80
2016-12-31T07:57:23.306Z,80
2016-12-31T07:58:32.868Z,80
2016-12-31T07:59:42.813Z,85
2016-12-31T08:00:53.593Z,85
2016-12-31T08:02:04.335Z,85
2016-12-31T08:03:15.075Z,85
2016-12-31T08:04:25.420Z,85
2016-12-31T08:05:35.408Z,90
2016-12-31T08:06:46.143Z,90
2016-12-31T08:07:56.890Z,90
2016-12-31T08:09:07.246Z,90
2016-12-31T08:10:17.628Z,95
2016-12-31T08:11:28.371Z,95
2016-12-31T08:12:38.721Z,95
2016-12-31T08:13:48.688Z,95
2016-12-31T08:14:59.460Z,95
2016-12-31T08:16:09.862Z,100
2016-12-31T08:17:19.803Z,100
2016-12-31T08:18:30.155Z,100
2016-12-31T08:19:40.512Z,100
2016-12-31T08:20:51.250Z,100
2016-12-31T08:22:01.618Z,100
2016-12-31T08:23:12.365Z,100
2016-12-31T08:24:23.107Z,100
2016-12-31T08:25:33.101Z,100
2016-12-31T08:26:43.034Z,100
2016-12-31T08:27:53.814Z,105
2016-12-31T08:29:04.160Z,105
2016-12-31T08:30:14.908Z,105
2016-12-31T08:31:24.857Z,105
2016-12-31T08:32:35.209Z,105
2016-12-31T08:33:45.549Z,105
2016-12-31T08:34:56.286Z,110
2016-12-31T08:36:06.642Z,110
2016-12-31T08:37:17.390Z,110
2016-12-31T08:38:27.745Z,110
2016-12-31T08:39:38.104Z,110
2016-12-31T08:40:48.841Z,115
2016-12-31T08:41:59.600Z,115
2016-12-31T08:43:09.534Z,115
2016-12-31T08:44:20.318Z,115
2016-12-31T08:45:30.683Z,115
2016-12-31T08:46:41.445Z,120
2016-12-31T08:47:51.812Z,120
2016-12-31T08:49:02.550Z,120
2016-12-31T08:50:13.299Z,120
2016-12-31T08:51:24.041Z,120
2016-12-31T08:52:34.799Z,120
2016-12-31T08:53:45.575Z,120
2016-12-31T08:54:55.933Z,125
2016-12-31T08:56:06.683Z,125
2016-12-31T08:57:17.026Z,125
2016-12-31T08:58:27.788Z,125
2016-12-31T08:59:38.519Z,125
2016-12-31T09:00:49.283Z,130
2016-12-31T09:01:59.638Z,130
2016-12-31T09:03:10.386Z,130
2016-12-31T09:04:21.141Z,130
2016-12-31T09:05:31.499Z,130
2016-12-31T09:06:42.476Z,130
2016-12-31T09:07:52.842Z,130
2016-12-31T09:09:03.195Z,135
2016-12-31T09:10:13.549Z,135
2016-12-31T09:11:23.882Z,135
2016-12-31T09:12:34.220Z,135
2016-12-31T09:13:44.954Z,140
2016-12-31T09:14:55.703Z,140
2016-12-31T09:16:06.459Z,140
2016-12-31T09:17:17.201Z,140
2016-12-31T09:18:27.563Z,140
2016-12-31T09:19:37.899Z,140
2016-12-31T09:20:48.638Z,145
2016-12-31T09:21:59.007Z,145
2016-12-31T09:23:09.356Z,145
2016-12-31T09:24:20.103Z,145
2016-12-31T09:25:30.847Z,150
2016-12-31T09:26:41.191Z,150
2016-12-31T09:27:51.926Z,150
2016-12-31T09:29:02.273Z,150
2016-12-31T09:30:12.621Z,150
2016-12-31T09:31:22.969Z,155
2016-12-31T09:32:33.726Z,155
2016-12-31T09:33:44.490Z,155
2016-12-31T09:34:54.840Z,155
2016-12-31T09:36:05.210Z,155
2016-12-31T09:37:15.957Z,155
2016-12-31T09:38:26.688Z,155
2016-12-31T09:39:37.430Z,160
2016-12-31T09:40:48.181Z,160
2016-12-31T09:41:58.928Z,160
2016-12-31T09:43:09.674Z,160
2016-12-31T09:44:20.406Z,160
2016-12-31T09:45:31.153Z,160
2016-12-31T09:46:41.905Z,160
2016-12-31T09:47:52.660Z,160
2016-12-31T09:49:03.002Z,160
2016-12-31T09:50:13.739Z,160
2016-12-31T09:51:24.091Z,160
2016-12-31T09:52:34.850Z,160
2016-12-31T09:53:44.812Z,165
2016-12-31T09:54:55.166Z,165
2016-12-31T09:56:05.892Z,165
2016-12-31T09:57:16.258Z,170
2016-12-31T09:58:26.629Z,165
2016-12-31T09:59:36.602Z,165
2016-12-31T10:00:47.388Z,165
2016-12-31T10:01:57.731Z,165
2016-12-31T10:03:08.094Z,165
2016-12-31T10:04:18.833Z,165
2016-12-31T10:05:29.168Z,165
2016-12-31T10:06:39.504Z,165
2016-12-31T10:07:49.863Z,165
2016-12-31T10:09:00.625Z,165
2016-12-31T10:10:11.372Z,165
2016-12-31T10:11:22.114Z,170
2016-12-31T10:12:32.879Z,170
2016-12-31T10:13:43.655Z,170
2016-12-31T10:14:54.024Z,170
2016-12-31T10:16:04.767Z,170
2016-12-31T10:17:14.732Z,170
2016-12-31T10:18:25.506Z,170
2016-12-31T10:19:36.254Z,170
2016-12-31T10:20:46.606Z,170
2016-12-31T10:21:56.562Z,175
2016-12-31T10:23:07.303Z,175
2016-12-31T10:24:18.046Z,175
2016-12-31T10:25:28.401Z,175
2016-12-31T10:26:39.148Z,175
2016-12-31T10:27:49.902Z,175
2016-12-31T10:29:00.241Z,175
2016-12-31T10:30:11.015Z,175
2016-12-31T10:31:21.210Z,175
2016-12-31T10:32:31.945Z,175
2016-12-31T10:33:41.504Z,175
2016-12-31T10:34:51.864Z,180
2016-12-31T10:36:02.227Z,175
2016-12-31T10:37:12.564Z,175
2016-12-31T10:38:23.310Z,175
2016-12-31T10:39:33.658Z,175
2016-12-31T10:40:44.014Z,175
2016-12-31T10:41:54.366Z,175
2016-12-31T10:43:05.107Z,175
2016-12-31T10:44:15.844Z,175
2016-12-31T10:45:25.807Z,175
2016-12-31T10:46:36.563Z,180
2016-12-31T10:47:46.910Z,180
2016-12-31T10:48:56.871Z,180
2016-12-31T10:50:07.223Z,185
2016-12-31T10:51:17.956Z,180
2016-12-31T10:52:28.715Z,180
2016-12-31T10:53:39.458Z,180
2016-12-31T10:54:50.230Z,180
2016-12-31T10:56:00.187Z,180
2016-12-31T10:57:10.569Z,180
2016-12-31T10:58:21.316Z,180
2016-12-31T10:59:31.659Z,180
2016-12-31T11:00:42.433Z,180
2016-12-31T11:01:52.391Z,180
2016-12-31T11:03:03.132Z,180
2016-12-31T11:04:13.509Z,185
2016-12-31T11:05:24.261Z,185
2016-12-31T11:06:33.850Z,185
2016-12-31T11:07:44.597Z,185
2016-12-31T11:08:55.372Z,185
2016-12-31T11:10:05.722Z,185
2016-12-31T11:11:16.473Z,185
2016-12-31T11:12:26.823Z,185
2016-12-31T11:13:37.584Z,185
2016-12-31T11:14:47.956Z,185
2016-12-31T11:15:58.314Z,185
2016-12-31T11:17:08.662Z,185
2016-12-31T11:18:19.436Z,185
2016-12-31T11:19:30.181Z,190
2016-12-31T11:20:40.766Z,190
2016-12-31T11:21:51.513Z,190
2016-12-31T11:23:01.868Z,190
2016-12-31T11:24:12.630Z,190
2016-12-31T11:25:23.356Z,190
2016-12-31T11:26:34.104Z,190
2016-12-31T11:27:44.461Z,190
2016-12-31T11:28:54.838Z,190
2016-12-31T11:30:05.188Z,190
2016-12-31T11:31:15.959Z,195
2016-12-31T11:32:26.326Z,195
2016-12-31T11:33:36.714Z,195
2016-12-31T11:34:47.091Z,190
2016-12-31T11:35:57.840Z,190
2016-12-31T11:37:08.595Z,190
2016-12-31T11:38:18.950Z,190
2016-12-31T11:39:29.695Z,190
2016-12-31T11:40:39.670Z,190
2016-12-31T11:41:50.424Z,190
2016-12-31T11:43:00.782Z,195
2016-12-31T11:44:11.539Z,190
2016-12-31T11:45:21.877Z,190
2016-12-31T11:46:32.635Z,190
2016-12-31T11:47:43.384Z,190
2016-12-31T11:48:54.126Z,190
2016-12-31T11:50:04.898Z,190
2016-12-31T11:51:15.646Z,190
2016-12-31T11:52:26.000Z,190
2016-12-31T11:53:36.768Z,185
2016-12-31T11:54:47.514Z,185
2016-12-31T11:55:58.277Z,185
2016-12-31T11:57:09.020Z,185
2016-12-31T11:58:19.760Z,185
2016-12-31T11:59:30.511Z,185
2016-12-31T12:00:40.892Z,185
2016-12-31T12:01:51.236Z,185
2016-12-31T12:03:02.006Z,185
2016-12-31T12:04:11.967Z,185
2016-12-31T12:05:22.341Z,185
2016-12-31T12:06:33.101Z,185
2016-12-31T12:07:43.838Z,185
2016-12-31T12:08:53.802Z,185
2016-12-31T12:10:04.161Z,185
2016-12-31T12:11:14.900Z,185
2016-12-31T12:12:25.666Z,185
2016-12-31T12:13:36.412Z,185
2016-12-31T12:14:46.768Z,185
2016-12-31T12:15:57.514Z,185
2016-12-31T12:17:08.275Z,185
2016-12-31T12:18:18.618Z,185
2016-12-31T12:19:29.350Z,190
2016-12-31T12:20:40.119Z,185
2016-12-31T12:21:50.863Z,185
2016-12-31T12:23:01.634Z,185
2016-12-31T12:24:12.407Z,185
2016-12-31T12:25:23.128Z,185
2016-12-31T12:26:33.879Z,185
2016-12-31T12:27:44.731Z,185
2016-12-31T12:28:55.486Z,185
2016-12-31T12:30:05.839Z,185
2016-12-31T12:31:16.587Z,185
2016-12-31T12:32:26.550Z,190
2016-12-31T12:33:37.309Z,185
2016-12-31T12:34:48.080Z,185
2016-12-31T12:35:58.828Z,185
2016-12-31T12:37:09.575Z,185
2016-12-31T12:38:19.122Z,185
2016-12-31T12:39:29.469Z,185
2016-12-31T12:40:40.222Z,185
2016-12-31T12:41:50.599Z,180
2016-12-31T12:43:00.153Z,180
2016-12-31T12:44:10.900Z,180
2016-12-31T12:45:20.852Z,175
2016-12-31T12:46:31.244Z,175
2016-12-31T12:47:41.596Z,175
2016-12-31T12:48:52.343Z,175
2016-12-31T12:50:02.698Z,175
2016-12-31T12:51:13.046Z,175
2016-12-31T12:52:23.797Z,175
2016-12-31T12:53:34.548Z,170
2016-12-31T12:54:45.301Z,170
2016-12-31T12:55:54.867Z,170
2016-12-31T12:57:05.610Z,170
2016-12-31T12:58:16.371Z,170
2016-12-31T12:59:25.940Z,165
2016-12-31T13:00:35.905Z,165
2016-12-31T13:01:46.681Z,165
2016-12-31T13:02:57.447Z,165
2016-12-31T13:04:08.209Z,160
2016-12-31T13:05:18.557Z,160
2016-12-31T13:06:28.922Z,155
2016-12-31T13:07:39.304Z,155
2016-12-31T13:08:49.253Z,155
2016-12-31T13:10:00.004Z,150
2016-12-31T13:11:10.754Z,150
2016-12-31T13:12:21.118Z,145
2016-12-31T13:13:31.465Z,145
2016-12-31T13:14:41.429Z,145
2016-12-31T13:15:51.802Z,140
2016-12-31T13:17:02.168Z,140
2016-12-31T13:18:12.945Z,140
2016-12-31T13:19:23.700Z,140
2016-12-31T13:20:33.675Z,135
2016-12-31T13:21:44.418Z,135
2016-12-31T13:22:54.372Z,135
2016-12-31T13:24:05.127Z,130
2016-12-31T13:25:15.496Z,130
2016-12-31T13:26:26.241Z,130
2016-12-31T13:27:35.814Z,130
2016-12-31T13:28:46.563Z,125
2016-12-31T13:29:57.350Z,125
2016-12-31T13:31:08.102Z,125
2016-12-31T13:32:18.448Z,120
2016-12-31T13:33:28.814Z,120
2016-12-31T13:34:38.778Z,120
2016-12-31T13:35:48.739Z,120
2016-12-31T13:36:59.079Z,115
2016-12-31T13:38:09.432Z,115
2016-12-31T13:39:20.182Z,115
2016-12-31T13:40:30.546Z,110
2016-12-31T13:41:41.320Z,110
2016-12-31T13:42:52.068Z,110
2016-12-31T13:44:02.430Z,105
2016-12-31T13:45:13.182Z,105
2016-12-31T13:46:23.543Z,105
2016-12-31T13:47:33.917Z,105
2016-12-31T13:48:44.688Z,100
2016-12-31T13:49:55.049Z,100
2016-12-31T13:51:05.040Z,100
2016-12-31T13:52:15.396Z,95
2016-12-31T13:53:25.738Z,95
2016-12-31T13:54:36.476Z,95
2016-12-31T13:55:47.238Z,90
2016-12-31T13:56:57.599Z,90
2016-12-31T13:58:08.370Z,90
2016-12-31T13:59:19.372Z,90
2016-12-31T14:00:30.125Z,90
2016-12-31T14:01:40.887Z,90
2016-12-31T14:02:50.869Z,85
2016-12-31T14:04:01.619Z,85
2016-12-31T14:05:11.973Z,85
2016-12-31T14:06:22.332Z,80
2016-12-31T14:07:32.675Z,80
2016-12-31T14:08:43.041Z,80
2016-12-31T14:09:53.793Z,75
2016-12-31T14:11:03.746Z,75
2016-12-31T14:12:13.711Z,70
2016-12-31T14:13:24.469Z,70
2016-12-31T14:14:35.238Z,65
2016-12-31T14:15:45.596Z,65
2016-12-31T14:16:55.568Z,60
2016-12-31T14:18:06.353Z,60
2016-12-31T14:19:16.941Z,55
2016-12-31T14:20:27.293Z,55
2016-12-31T14:21:38.046Z,50
2016-12-31T14:22:48.407Z,50
2016-12-31T14:23:57.969Z,45
2016-12-31T14:25:07.934Z,50
2016-12-31T14:26:18.693Z,45
2016-12-31T14:27:29.444Z,45
2016-12-31T14:28:39.396Z,40
2016-12-31T14:29:50.147Z,40
2016-12-31T14:31:00.513Z,35
2016-12-31T14:32:10.901Z,35
2016-12-31T14:33:21.675Z,35
2016-12-31T14:34:32.036Z,30
2016-12-31T14:35:42.790Z,30
2016-12-31T14:36:53.540Z,30
2016-12-31T14:38:03.893Z,30
2016-12-31T14:39:14.633Z,25
2016-12-31T14:40:25.405Z,25
2016-12-31T14:41:35.760Z,25
2016-12-31T14:42:46.534Z,25
2016-12-31T14:43:56.498Z,20
2016-12-31T14:45:06.450Z,20
2016-12-31T14:46:17.201Z,20
2016-12-31T14:47:27.922Z,20
2016-12-31T14:48:38.737Z,20
2016-12-31T14:49:49.096Z,20
2016-12-31T14:50:59.486Z,15
2016-12-31T14:52:10.234Z,15
2016-12-31T14:53:20.205Z,15
2016-12-31T14:54:30.950Z,15
2016-12-31T14:55:41.708Z,15
2016-12-31T14:56:51.689Z,10
2016-12-31T14:58:02.037Z,10
2016-12-31T14:59:12.802Z,10
2016-12-31T15:00:23.548Z,10
2016-12-31T15:01:34.313Z,10
2016-12-31T15:02:44.671Z,10
2016-12-31T15:03:55.430Z,5
2016-12-31T15:05:06.182Z,5
2016-12-31T15:06:16.546Z,5
2016-12-31T15:07:27.329Z,5
2016-12-31T15:08:38.090Z,5
2016-12-31T15:09:48.076Z,5
2016-12-31T15:10:58.838Z,5
2016-12-31T15:12:09.213Z,5
2016-12-31T15:13:19.968Z,5
2016-12-31T15:14:30.738Z,0
2016-12-31T15:15:41.524Z,0
2016-12-31T15:16:52.291Z,0
2016-12-31T15:18:02.668Z,0
2016-12-31T15:19:13.437Z,0
2016-12-31T15:20:23.802Z,0
2016-12-31T15:21:33.777Z,0
2016-12-31T15:22:44.140Z,0
2016-12-31T15:23:54.496Z,0
2016-12-31T15:25:04.842Z,0
2016-12-31T15:26:15.594Z,0
2016-12-31T15:27:26.351Z,0
2016-12-31T15:28:36.693Z,0
2016-12-31T15:29:47.033Z,0
2016-12-31T15:30:57.395Z,0
2016-12-31T15:32:07.740Z,0
2016-12-31T15:33:18.108Z,0
2016-12-31T15:34:28.077Z,0
2016-12-31T15:35:38.043Z,0
2016-12-31T15:36:48.007Z,0
2016-12-31T15:37:58.752Z,0
2016-12-31T15:39:09.113Z,0
2016-12-31T15:40:19.858Z,0
2016-12-31T15:41:30.604Z,0
2016-12-31T15:42:40.962Z,0
2016-12-31T15:43:51.713Z,0
2016-12-31T15:45:02.463Z,0
2016-12-31T15:46:12.816Z,0
2016-12-31T15:47:23.559Z,0
2016-12-31T15:48:34.329Z,0
2016-12-31T15:49:44.687Z,0
2016-12-31T15:50:55.034Z,0
2016-12-31T15:52:05.785Z,0
2016-12-31T15:53:16.158Z,0
2016-12-31T15:54:26.902Z,0
2016-12-31T15:55:37.656Z,0
2016-12-31T15:56:48.021Z,0
2016-12-31T15:57:57.968Z,0
2016-12-31T15:59:08.314Z,0
2016-12-31T16:00:19.076Z,0
2016-12-31T16:01:29.815Z,0
2016-12-31T16:02:40.180Z,0
2016-12-31T16:03:50.943Z,0
2016-12-31T16:05:01.296Z,0
2016-12-31T16:06:11.657Z,0
2016-12-31T16:07:21.614Z,0
2016-12-31T16:08:31.582Z,0
2016-12-31T16:09:42.322Z,0
2016-12-31T16:10:53.064Z,0
2016-12-31T16:12:03.025Z,0
2016-12-31T16:13:13.377Z,0
2016-12-31T16:14:24.119Z,0
2016-12-31T16:15:34.858Z,0
2016-12-31T16:16:45.208Z,0
2016-12-31T16:17:55.973Z,0
2016-12-31T16:19:05.952Z,0
2016-12-31T16:20:16.710Z,0
2016-12-31T16:21:27.067Z,0
2016-12-31T16:22:37.821Z,0
2016-12-31T16:23:48.567Z,0
2016-12-31T16:24:58.914Z,0
2016-12-31T16:26:09.678Z,0
2016-12-31T16:27:20.038Z,0
2016-12-31T16:28:30.808Z,0
2016-12-31T16:29:41.538Z,0
2016-12-31T16:30:52.302Z,0
2016-12-31T16:32:02.663Z,0
2016-12-31T16:33:13.425Z,0
2016-12-31T16:34:24.186Z,0
2016-12-31T16:35:34.138Z,0
2016-12-31T16:36:44.886Z,0
2016-12-31T16:37:54.854Z,0
2016-12-31T16:39:04.808Z,0
2016-12-31T16:40:15.149Z,0
2016-12-31T16:41:25.939Z,0
2016-12-31T16:42:36.294Z,0
2016-12-31T16:43:47.050Z,0
2016-12-31T16:44:57.832Z,0
2016-12-31T16:46:07.769Z,0
2016-12-31T16:47:18.517Z,0
2016-12-31T16:48:29.250Z,0
2016-12-31T16:49:39.996Z,0
2016-12-31T16:50:50.748Z,0
2016-12-31T16:52:01.517Z,0
2016-12-31T16:53:11.859Z,0
2016-12-31T16:54:22.209Z,0
2016-12-31T16:55:32.953Z,0
2016-12-31T16:56:43.311Z,0
2016-12-31T16:57:54.050Z,0
2016-12-31T16:59:04.015Z,0
2016-12-31T17:00:13.979Z,0
2016-12-31T17:01:24.716Z,0
2016-12-31T17:02:35.063Z,0
2016-12-31T17:03:45.801Z,0
2016-12-31T17:04:55.359Z,0
2016-12-31T17:06:05.703Z,0
2016-12-31T17:07:15.264Z,0
2016-12-31T17:08:25.226Z,0
2016-12-31T17:09:35.564Z,0
2016-12-31T17:10:45.925Z,0
2016-12-31T17:11:56.657Z,0
2016-12-31T17:13:07.047Z,0
2016-12-31T17:14:17.427Z,0
2016-12-31T17:15:27.368Z,0
2016-12-31T17:16:38.144Z,0
2016-12-31T17:17:48.498Z,0
2016-12-31T17:18:59.240Z,0
2016-12-31T17:20:09.577Z,0
2016-12-31T17:21:20.171Z,0
2016-12-31T17:22:30.940Z,0